sensor_id;sensor_type;location;lat;lon;timestamp;P1;durP1;ratioP1;P2;durP2;ratioP2
22094;SDS011;24083;55.670;37.568;2024-03-08T00:04:49;5.65;;;3.15;;
22094;SDS011;24083;55.670;37.568;2024-03-08T00:07:26;5.53;;;3.17;;
22094;SDS011;24083;55.670;37.568;2024-03-08T00:20:13;6.57;;;2.85;;
22094;SDS011;24083;55.670;37.568;2024-03-08T00:22:49;3.60;;;2.00;;
22094;SDS011;24083;55.670;37.568;2024-03-08T01:42:51;4.53;;;2.47;;
22094;SDS011;24083;55.670;37.568;2024-03-08T02:04:18;5.45;;;1.63;;
22094;SDS011;24083;55.670;37.568;2024-03-08T02:06:52;5.57;;;2.97;;
22094;SDS011;24083;55.670;37.568;2024-03-08T02:13:40;4.97;;;3.13;;
22094;SDS011;24083;55.670;37.568;2024-03-08T02:16:34;8.20;;;2.55;;
22094;SDS011;24083;55.670;37.568;2024-03-08T02:19:29;4.40;;;2.55;;
22094;SDS011;24083;55.670;37.568;2024-03-08T02:30:49;3.47;;;1.90;;
22094;SDS011;24083;55.670;37.568;2024-03-08T02:34:01;5.18;;;3.20;;
22094;SDS011;24083;55.670;37.568;2024-03-08T02:36:29;4.43;;;2.15;;
22094;SDS011;24083;55.670;37.568;2024-03-08T02:41:36;4.85;;;3.47;;
22094;SDS011;24083;55.670;37.568;2024-03-08T02:44:15;3.10;;;1.67;;
22094;SDS011;24083;55.670;37.568;2024-03-08T02:46:45;6.18;;;3.70;;
22094;SDS011;24083;55.670;37.568;2024-03-08T02:49:19;5.53;;;2.88;;
22094;SDS011;24083;55.670;37.568;2024-03-08T02:51:49;6.15;;;3.20;;
22094;SDS011;24083;55.670;37.568;2024-03-08T02:54:28;7.13;;;3.40;;
22094;SDS011;24083;55.670;37.568;2024-03-08T02:59:55;4.18;;;2.65;;
22094;SDS011;24083;55.670;37.568;2024-03-08T03:02:21;4.30;;;2.03;;
22094;SDS011;24083;55.670;37.568;2024-03-08T03:04:49;7.35;;;3.63;;
22094;SDS011;24083;55.670;37.568;2024-03-08T03:10:03;6.20;;;3.53;;
22094;SDS011;24083;55.670;37.568;2024-03-08T03:12:29;6.57;;;3.13;;
22094;SDS011;24083;55.670;37.568;2024-03-08T03:14:57;6.03;;;3.13;;
22094;SDS011;24083;55.670;37.568;2024-03-08T03:17:23;6.18;;;3.85;;
22094;SDS011;24083;55.670;37.568;2024-03-08T03:19:52;3.35;;;1.95;;
22094;SDS011;24083;55.670;37.568;2024-03-08T03:22:19;6.22;;;3.25;;
22094;SDS011;24083;55.670;37.568;2024-03-08T03:24:45;5.35;;;3.22;;
22094;SDS011;24083;55.670;37.568;2024-03-08T03:30:28;6.18;;;3.88;;
22094;SDS011;24083;55.670;37.568;2024-03-08T03:33:00;7.75;;;4.80;;
22094;SDS011;24083;55.670;37.568;2024-03-08T03:35:27;8.80;;;4.47;;
22094;SDS011;24083;55.670;37.568;2024-03-08T03:37:55;6.43;;;3.00;;
22094;SDS011;24083;55.670;37.568;2024-03-08T03:40:33;4.32;;;2.90;;
22094;SDS011;24083;55.670;37.568;2024-03-08T03:43:00;4.67;;;2.73;;
22094;SDS011;24083;55.670;37.568;2024-03-08T03:45:27;8.10;;;4.68;;
22094;SDS011;24083;55.670;37.568;2024-03-08T03:47:55;5.30;;;2.95;;
22094;SDS011;24083;55.670;37.568;2024-03-08T03:50:23;6.50;;;2.40;;
22094;SDS011;24083;55.670;37.568;2024-03-08T03:52:50;8.07;;;4.82;;
22094;SDS011;24083;55.670;37.568;2024-03-08T03:55:16;6.80;;;4.30;;
22094;SDS011;24083;55.670;37.568;2024-03-08T03:57:44;5.20;;;3.15;;
22094;SDS011;24083;55.670;37.568;2024-03-08T04:00:24;3.85;;;2.30;;
22094;SDS011;24083;55.670;37.568;2024-03-08T04:02:53;8.40;;;5.35;;
22094;SDS011;24083;55.670;37.568;2024-03-08T04:07:58;6.32;;;3.95;;
22094;SDS011;24083;55.670;37.568;2024-03-08T04:10:23;6.60;;;3.08;;
22094;SDS011;24083;55.670;37.568;2024-03-08T04:12:49;5.70;;;2.63;;
22094;SDS011;24083;55.670;37.568;2024-03-08T04:15:15;5.75;;;2.78;;
22094;SDS011;24083;55.670;37.568;2024-03-08T04:20:49;4.47;;;2.65;;
22094;SDS011;24083;55.670;37.568;2024-03-08T04:23:41;5.65;;;3.70;;
22094;SDS011;24083;55.670;37.568;2024-03-08T04:29:00;3.65;;;2.25;;
22094;SDS011;24083;55.670;37.568;2024-03-08T04:31:26;7.15;;;3.97;;
22094;SDS011;24083;55.670;37.568;2024-03-08T04:33:53;8.13;;;4.93;;
22094;SDS011;24083;55.670;37.568;2024-03-08T04:36:20;6.75;;;3.75;;
22094;SDS011;24083;55.670;37.568;2024-03-08T04:38:52;2.47;;;1.65;;
22094;SDS011;24083;55.670;37.568;2024-03-08T04:41:19;2.53;;;1.83;;
22094;SDS011;24083;55.670;37.568;2024-03-08T04:43:46;5.85;;;2.83;;
22094;SDS011;24083;55.670;37.568;2024-03-08T04:49:06;4.28;;;2.33;;
22094;SDS011;24083;55.670;37.568;2024-03-08T04:51:33;3.33;;;1.75;;
22094;SDS011;24083;55.670;37.568;2024-03-08T04:53:59;12.68;;;3.53;;
22094;SDS011;24083;55.670;37.568;2024-03-08T05:04:51;8.13;;;4.18;;
22094;SDS011;24083;55.670;37.568;2024-03-08T05:07:16;5.85;;;3.03;;
22094;SDS011;24083;55.670;37.568;2024-03-08T05:09:42;7.18;;;3.90;;
22094;SDS011;24083;55.670;37.568;2024-03-08T05:12:09;7.32;;;4.30;;
22094;SDS011;24083;55.670;37.568;2024-03-08T05:14:38;5.50;;;3.45;;
22094;SDS011;24083;55.670;37.568;2024-03-08T05:17:04;5.10;;;3.10;;
22094;SDS011;24083;55.670;37.568;2024-03-08T05:19:38;3.85;;;2.08;;
22094;SDS011;24083;55.670;37.568;2024-03-08T05:22:05;9.30;;;5.22;;
22094;SDS011;24083;55.670;37.568;2024-03-08T05:24:31;5.53;;;3.10;;
22094;SDS011;24083;55.670;37.568;2024-03-08T05:29:50;8.15;;;3.42;;
22094;SDS011;24083;55.670;37.568;2024-03-08T05:32:18;11.25;;;5.75;;
22094;SDS011;24083;55.670;37.568;2024-03-08T05:34:45;4.95;;;2.47;;
22094;SDS011;24083;55.670;37.568;2024-03-08T05:37:11;8.50;;;4.55;;
22094;SDS011;24083;55.670;37.568;2024-03-08T05:39:38;9.85;;;5.10;;
22094;SDS011;24083;55.670;37.568;2024-03-08T05:45:00;11.32;;;6.10;;
22094;SDS011;24083;55.670;37.568;2024-03-08T05:47:26;12.57;;;5.15;;
22094;SDS011;24083;55.670;37.568;2024-03-08T05:49:52;11.35;;;4.35;;
22094;SDS011;24083;55.670;37.568;2024-03-08T05:55:10;6.43;;;4.03;;
22094;SDS011;24083;55.670;37.568;2024-03-08T05:57:41;11.90;;;5.25;;
22094;SDS011;24083;55.670;37.568;2024-03-08T06:02:41;5.90;;;2.40;;
22094;SDS011;24083;55.670;37.568;2024-03-08T06:05:08;10.10;;;4.97;;
22094;SDS011;24083;55.670;37.568;2024-03-08T06:07:37;8.75;;;5.13;;
22094;SDS011;24083;55.670;37.568;2024-03-08T06:10:12;5.32;;;2.53;;
22094;SDS011;24083;55.670;37.568;2024-03-08T06:12:40;11.98;;;5.55;;
22094;SDS011;24083;55.670;37.568;2024-03-08T06:15:08;7.85;;;4.32;;
22094;SDS011;24083;55.670;37.568;2024-03-08T06:20:02;8.05;;;3.72;;
22094;SDS011;24083;55.670;37.568;2024-03-08T06:22:55;8.60;;;3.95;;
22094;SDS011;24083;55.670;37.568;2024-03-08T06:25:28;10.77;;;4.88;;
22094;SDS011;24083;55.670;37.568;2024-03-08T06:27:54;8.23;;;3.50;;
22094;SDS011;24083;55.670;37.568;2024-03-08T06:30:20;10.10;;;5.53;;
22094;SDS011;24083;55.670;37.568;2024-03-08T06:35:42;9.20;;;4.43;;
22094;SDS011;24083;55.670;37.568;2024-03-08T06:38:09;8.23;;;4.90;;
22094;SDS011;24083;55.670;37.568;2024-03-08T06:40:40;5.13;;;2.28;;
22094;SDS011;24083;55.670;37.568;2024-03-08T06:43:06;7.45;;;3.53;;
22094;SDS011;24083;55.670;37.568;2024-03-08T06:45:33;11.13;;;5.63;;
22094;SDS011;24083;55.670;37.568;2024-03-08T06:48:00;9.85;;;6.30;;
22094;SDS011;24083;55.670;37.568;2024-03-08T06:50:44;6.80;;;4.13;;
22094;SDS011;24083;55.670;37.568;2024-03-08T06:53:11;5.65;;;3.45;;
22094;SDS011;24083;55.670;37.568;2024-03-08T06:55:39;8.57;;;4.88;;
22094;SDS011;24083;55.670;37.568;2024-03-08T06:58:07;10.30;;;6.13;;
22094;SDS011;24083;55.670;37.568;2024-03-08T07:00:33;7.50;;;4.90;;
22094;SDS011;24083;55.670;37.568;2024-03-08T07:03:00;10.80;;;5.20;;
22094;SDS011;24083;55.670;37.568;2024-03-08T07:08:02;5.43;;;2.67;;
22094;SDS011;24083;55.670;37.568;2024-03-08T07:10:29;11.30;;;6.07;;
22094;SDS011;24083;55.670;37.568;2024-03-08T07:12:54;13.88;;;5.32;;
22094;SDS011;24083;55.670;37.568;2024-03-08T07:19:07;6.97;;;3.60;;
22094;SDS011;24083;55.670;37.568;2024-03-08T07:21:34;6.43;;;3.53;;
22094;SDS011;24083;55.670;37.568;2024-03-08T07:24:01;13.05;;;4.82;;
22094;SDS011;24083;55.670;37.568;2024-03-08T07:26:27;10.88;;;5.93;;
22094;SDS011;24083;55.670;37.568;2024-03-08T07:28:54;7.55;;;4.75;;
22094;SDS011;24083;55.670;37.568;2024-03-08T07:31:24;9.48;;;5.18;;
22094;SDS011;24083;55.670;37.568;2024-03-08T07:34:15;10.65;;;5.85;;
22094;SDS011;24083;55.670;37.568;2024-03-08T07:39:52;13.27;;;6.05;;
22094;SDS011;24083;55.670;37.568;2024-03-08T07:42:18;11.25;;;5.30;;
22094;SDS011;24083;55.670;37.568;2024-03-08T07:44:43;5.10;;;3.13;;
22094;SDS011;24083;55.670;37.568;2024-03-08T07:47:13;5.65;;;3.42;;
22094;SDS011;24083;55.670;37.568;2024-03-08T07:52:11;6.80;;;3.55;;
22094;SDS011;24083;55.670;37.568;2024-03-08T07:54:42;4.07;;;2.60;;
22094;SDS011;24083;55.670;37.568;2024-03-08T07:57:08;9.02;;;5.32;;
22094;SDS011;24083;55.670;37.568;2024-03-08T07:59:46;7.57;;;4.68;;
22094;SDS011;24083;55.670;37.568;2024-03-08T08:02:12;8.85;;;5.05;;
22094;SDS011;24083;55.670;37.568;2024-03-08T08:04:48;6.22;;;3.17;;
22094;SDS011;24083;55.670;37.568;2024-03-08T08:10:11;12.27;;;6.00;;
22094;SDS011;24083;55.670;37.568;2024-03-08T08:12:44;8.90;;;5.82;;
22094;SDS011;24083;55.670;37.568;2024-03-08T08:15:12;10.52;;;6.05;;
22094;SDS011;24083;55.670;37.568;2024-03-08T08:27:05;4.13;;;2.30;;
22094;SDS011;24083;55.670;37.568;2024-03-08T08:29:37;10.68;;;6.20;;
22094;SDS011;24083;55.670;37.568;2024-03-08T08:32:02;7.95;;;3.50;;
22094;SDS011;24083;55.670;37.568;2024-03-08T08:37:26;9.65;;;5.57;;
22094;SDS011;24083;55.670;37.568;2024-03-08T08:40:38;11.90;;;6.20;;
22094;SDS011;24083;55.670;37.568;2024-03-08T08:44:02;11.15;;;5.18;;
22094;SDS011;24083;55.670;37.568;2024-03-08T08:46:31;11.77;;;6.50;;
22094;SDS011;24083;55.670;37.568;2024-03-08T08:53:50;4.00;;;1.88;;
22094;SDS011;24083;55.670;37.568;2024-03-08T08:56:18;8.10;;;3.95;;
22094;SDS011;24083;55.670;37.568;2024-03-08T08:58:55;6.10;;;2.70;;
22094;SDS011;24083;55.670;37.568;2024-03-08T09:04:39;11.15;;;5.80;;
22094;SDS011;24083;55.670;37.568;2024-03-08T09:22:48;9.25;;;4.57;;
22094;SDS011;24083;55.670;37.568;2024-03-08T09:42:53;11.57;;;6.65;;
22094;SDS011;24083;55.670;37.568;2024-03-08T09:51:39;12.23;;;6.82;;
22094;SDS011;24083;55.670;37.568;2024-03-08T09:58:13;11.13;;;6.53;;
22094;SDS011;24083;55.670;37.568;2024-03-08T10:00:57;9.82;;;5.80;;
22094;SDS011;24083;55.670;37.568;2024-03-08T10:04:02;7.30;;;4.13;;
22094;SDS011;24083;55.670;37.568;2024-03-08T10:09:24;10.30;;;5.93;;
22094;SDS011;24083;55.670;37.568;2024-03-08T10:11:59;12.00;;;7.22;;
22094;SDS011;24083;55.670;37.568;2024-03-08T10:14:32;11.02;;;7.32;;
22094;SDS011;24083;55.670;37.568;2024-03-08T10:20:18;14.57;;;6.55;;
22094;SDS011;24083;55.670;37.568;2024-03-08T10:25:41;14.63;;;8.00;;
22094;SDS011;24083;55.670;37.568;2024-03-08T10:28:11;11.18;;;7.47;;
22094;SDS011;24083;55.670;37.568;2024-03-08T10:30:46;12.27;;;6.82;;
22094;SDS011;24083;55.670;37.568;2024-03-08T10:33:13;9.80;;;5.90;;
22094;SDS011;24083;55.670;37.568;2024-03-08T10:35:48;14.65;;;7.53;;
22094;SDS011;24083;55.670;37.568;2024-03-08T10:38:18;13.50;;;7.97;;
22094;SDS011;24083;55.670;37.568;2024-03-08T10:40:50;13.93;;;6.25;;
22094;SDS011;24083;55.670;37.568;2024-03-08T10:43:25;11.65;;;7.10;;
22094;SDS011;24083;55.670;37.568;2024-03-08T10:52:53;9.90;;;4.57;;
22094;SDS011;24083;55.670;37.568;2024-03-08T10:55:30;7.50;;;3.28;;
22094;SDS011;24083;55.670;37.568;2024-03-08T10:58:31;9.15;;;5.00;;
22094;SDS011;24083;55.670;37.568;2024-03-08T11:10:41;10.63;;;5.45;;
22094;SDS011;24083;55.670;37.568;2024-03-08T11:13:39;8.65;;;4.95;;
22094;SDS011;24083;55.670;37.568;2024-03-08T11:21:58;11.48;;;6.97;;
22094;SDS011;24083;55.670;37.568;2024-03-08T11:24:38;16.88;;;8.73;;
22094;SDS011;24083;55.670;37.568;2024-03-08T11:28:16;9.90;;;5.97;;
22094;SDS011;24083;55.670;37.568;2024-03-08T11:30:47;5.72;;;3.25;;
22094;SDS011;24083;55.670;37.568;2024-03-08T11:36:24;6.63;;;3.33;;
22094;SDS011;24083;55.670;37.568;2024-03-08T11:39:01;7.85;;;4.68;;
22094;SDS011;24083;55.670;37.568;2024-03-08T11:42:26;9.25;;;6.00;;
22094;SDS011;24083;55.670;37.568;2024-03-08T11:51:50;7.85;;;4.18;;
22094;SDS011;24083;55.670;37.568;2024-03-08T11:54:27;11.50;;;5.60;;
22094;SDS011;24083;55.670;37.568;2024-03-08T11:59:56;10.68;;;6.00;;
22094;SDS011;24083;55.670;37.568;2024-03-08T12:02:41;5.20;;;2.80;;
22094;SDS011;24083;55.670;37.568;2024-03-08T12:05:27;6.95;;;3.50;;
22094;SDS011;24083;55.670;37.568;2024-03-08T12:07:58;9.20;;;4.50;;
22094;SDS011;24083;55.670;37.568;2024-03-08T12:10:24;5.20;;;2.83;;
22094;SDS011;24083;55.670;37.568;2024-03-08T12:12:53;9.38;;;5.18;;
22094;SDS011;24083;55.670;37.568;2024-03-08T12:15:20;9.23;;;5.55;;
22094;SDS011;24083;55.670;37.568;2024-03-08T12:17:49;10.68;;;6.35;;
22094;SDS011;24083;55.670;37.568;2024-03-08T12:20:25;11.30;;;6.25;;
22094;SDS011;24083;55.670;37.568;2024-03-08T12:22:52;9.80;;;5.50;;
22094;SDS011;24083;55.670;37.568;2024-03-08T12:25:19;8.95;;;5.70;;
22094;SDS011;24083;55.670;37.568;2024-03-08T12:27:45;13.18;;;7.10;;
22094;SDS011;24083;55.670;37.568;2024-03-08T12:30:18;12.30;;;7.22;;
22094;SDS011;24083;55.670;37.568;2024-03-08T12:32:48;8.98;;;4.43;;
22094;SDS011;24083;55.670;37.568;2024-03-08T12:35:16;4.75;;;2.70;;
22094;SDS011;24083;55.670;37.568;2024-03-08T12:37:41;13.25;;;7.22;;
22094;SDS011;24083;55.670;37.568;2024-03-08T12:40:09;8.38;;;5.20;;
22094;SDS011;24083;55.670;37.568;2024-03-08T12:42:35;8.98;;;5.45;;
22094;SDS011;24083;55.670;37.568;2024-03-08T12:45:02;7.25;;;3.90;;
22094;SDS011;24083;55.670;37.568;2024-03-08T12:50:22;8.35;;;5.78;;
22094;SDS011;24083;55.670;37.568;2024-03-08T12:52:48;9.32;;;5.03;;
22094;SDS011;24083;55.670;37.568;2024-03-08T12:55:20;6.55;;;3.63;;
22094;SDS011;24083;55.670;37.568;2024-03-08T12:57:47;6.63;;;4.10;;
22094;SDS011;24083;55.670;37.568;2024-03-08T13:00:14;6.07;;;3.85;;
22094;SDS011;24083;55.670;37.568;2024-03-08T13:06:39;5.60;;;3.05;;
22094;SDS011;24083;55.670;37.568;2024-03-08T13:14:35;9.63;;;5.70;;
22094;SDS011;24083;55.670;37.568;2024-03-08T13:17:10;4.38;;;2.42;;
22094;SDS011;24083;55.670;37.568;2024-03-08T13:19:58;8.27;;;4.80;;
22094;SDS011;24083;55.670;37.568;2024-03-08T13:22:24;4.88;;;3.13;;
22094;SDS011;24083;55.670;37.568;2024-03-08T13:24:52;4.82;;;2.67;;
22094;SDS011;24083;55.670;37.568;2024-03-08T13:27:34;4.25;;;2.05;;
22094;SDS011;24083;55.670;37.568;2024-03-08T13:30:06;6.88;;;3.55;;
22094;SDS011;24083;55.670;37.568;2024-03-08T13:32:33;5.32;;;2.20;;
22094;SDS011;24083;55.670;37.568;2024-03-08T13:35:00;9.75;;;4.93;;
22094;SDS011;24083;55.670;37.568;2024-03-08T13:37:28;4.15;;;2.60;;
22094;SDS011;24083;55.670;37.568;2024-03-08T13:39:55;6.45;;;2.40;;
22094;SDS011;24083;55.670;37.568;2024-03-08T13:43:04;7.43;;;4.05;;
22094;SDS011;24083;55.670;37.568;2024-03-08T13:45:34;4.20;;;2.50;;
22094;SDS011;24083;55.670;37.568;2024-03-08T13:57:50;7.13;;;2.97;;
22094;SDS011;24083;55.670;37.568;2024-03-08T14:00:20;8.70;;;4.57;;
22094;SDS011;24083;55.670;37.568;2024-03-08T14:05:52;6.55;;;4.25;;
22094;SDS011;24083;55.670;37.568;2024-03-08T14:14:52;7.63;;;4.63;;
22094;SDS011;24083;55.670;37.568;2024-03-08T14:17:19;7.05;;;4.10;;
22094;SDS011;24083;55.670;37.568;2024-03-08T14:19:47;7.75;;;4.68;;
22094;SDS011;24083;55.670;37.568;2024-03-08T14:22:23;5.10;;;2.22;;
22094;SDS011;24083;55.670;37.568;2024-03-08T14:24:49;7.70;;;4.82;;
22094;SDS011;24083;55.670;37.568;2024-03-08T14:27:23;6.85;;;4.47;;
22094;SDS011;24083;55.670;37.568;2024-03-08T14:29:49;6.13;;;4.00;;
22094;SDS011;24083;55.670;37.568;2024-03-08T14:32:15;6.80;;;4.13;;
22094;SDS011;24083;55.670;37.568;2024-03-08T14:34:45;8.23;;;4.75;;
22094;SDS011;24083;55.670;37.568;2024-03-08T14:37:11;8.27;;;4.93;;
22094;SDS011;24083;55.670;37.568;2024-03-08T14:39:40;7.00;;;4.30;;
22094;SDS011;24083;55.670;37.568;2024-03-08T14:44:41;6.63;;;3.90;;
22094;SDS011;24083;55.670;37.568;2024-03-08T14:49:37;9.90;;;4.38;;
22094;SDS011;24083;55.670;37.568;2024-03-08T14:52:04;3.78;;;1.85;;
22094;SDS011;24083;55.670;37.568;2024-03-08T14:57:43;5.75;;;3.40;;
22094;SDS011;24083;55.670;37.568;2024-03-08T15:07:12;3.70;;;2.10;;
22094;SDS011;24083;55.670;37.568;2024-03-08T15:09:39;5.85;;;3.80;;
22094;SDS011;24083;55.670;37.568;2024-03-08T15:13:17;6.70;;;2.63;;
22094;SDS011;24083;55.670;37.568;2024-03-08T15:15:49;10.85;;;4.30;;
22094;SDS011;24083;55.670;37.568;2024-03-08T15:18:25;7.75;;;4.50;;
22094;SDS011;24083;55.670;37.568;2024-03-08T15:20:58;4.72;;;2.63;;
22094;SDS011;24083;55.670;37.568;2024-03-08T15:23:23;8.88;;;4.18;;
22094;SDS011;24083;55.670;37.568;2024-03-08T15:25:52;4.10;;;2.88;;
22094;SDS011;24083;55.670;37.568;2024-03-08T15:30:54;7.75;;;3.90;;
22094;SDS011;24083;55.670;37.568;2024-03-08T15:36:00;6.70;;;4.18;;
22094;SDS011;24083;55.670;37.568;2024-03-08T15:44:00;3.05;;;1.63;;
22094;SDS011;24083;55.670;37.568;2024-03-08T15:46:37;8.48;;;3.58;;
22094;SDS011;24083;55.670;37.568;2024-03-08T15:49:09;6.20;;;3.58;;
22094;SDS011;24083;55.670;37.568;2024-03-08T15:51:38;6.22;;;2.20;;
22094;SDS011;24083;55.670;37.568;2024-03-08T15:54:53;5.07;;;2.17;;
22094;SDS011;24083;55.670;37.568;2024-03-08T15:57:04;5.53;;;3.92;;
22094;SDS011;24083;55.670;37.568;2024-03-08T15:59:35;10.57;;;4.20;;
22094;SDS011;24083;55.670;37.568;2024-03-08T16:05:08;9.48;;;4.53;;
22094;SDS011;24083;55.670;37.568;2024-03-08T16:08:00;6.85;;;3.67;;
22094;SDS011;24083;55.670;37.568;2024-03-08T16:10:26;8.60;;;4.13;;
22094;SDS011;24083;55.670;37.568;2024-03-08T16:12:57;6.07;;;3.03;;
22094;SDS011;24083;55.670;37.568;2024-03-08T16:15:46;6.65;;;3.08;;
22094;SDS011;24083;55.670;37.568;2024-03-08T16:18:29;9.90;;;4.65;;
22094;SDS011;24083;55.670;37.568;2024-03-08T16:20:57;7.03;;;3.38;;
22094;SDS011;24083;55.670;37.568;2024-03-08T16:23:23;7.32;;;4.57;;
22094;SDS011;24083;55.670;37.568;2024-03-08T16:25:50;4.93;;;2.55;;
22094;SDS011;24083;55.670;37.568;2024-03-08T16:28:21;7.57;;;4.35;;
22094;SDS011;24083;55.670;37.568;2024-03-08T16:30:52;4.47;;;2.53;;
22094;SDS011;24083;55.670;37.568;2024-03-08T16:33:21;3.42;;;1.92;;
22094;SDS011;24083;55.670;37.568;2024-03-08T16:35:51;8.07;;;4.20;;
22094;SDS011;24083;55.670;37.568;2024-03-08T16:38:18;8.70;;;3.55;;
22094;SDS011;24083;55.670;37.568;2024-03-08T16:40:53;6.07;;;3.38;;
22094;SDS011;24083;55.670;37.568;2024-03-08T16:43:22;4.40;;;2.10;;
22094;SDS011;24083;55.670;37.568;2024-03-08T16:45:52;4.32;;;1.92;;
22094;SDS011;24083;55.670;37.568;2024-03-08T16:48:25;8.55;;;3.85;;
22094;SDS011;24083;55.670;37.568;2024-03-08T16:50:53;7.13;;;4.15;;
22094;SDS011;24083;55.670;37.568;2024-03-08T16:53:20;6.20;;;3.28;;
22094;SDS011;24083;55.670;37.568;2024-03-08T16:55:46;6.30;;;3.30;;
22094;SDS011;24083;55.670;37.568;2024-03-08T17:01:29;3.95;;;2.25;;
22094;SDS011;24083;55.670;37.568;2024-03-08T17:03:58;6.03;;;2.28;;
22094;SDS011;24083;55.670;37.568;2024-03-08T17:06:26;3.97;;;2.05;;
22094;SDS011;24083;55.670;37.568;2024-03-08T17:15:24;9.18;;;3.95;;
22094;SDS011;24083;55.670;37.568;2024-03-08T17:24:53;5.55;;;2.35;;
22094;SDS011;24083;55.670;37.568;2024-03-08T17:27:21;4.32;;;2.33;;
22094;SDS011;24083;55.670;37.568;2024-03-08T17:29:59;4.97;;;2.83;;
22094;SDS011;24083;55.670;37.568;2024-03-08T17:32:32;4.45;;;2.08;;
22094;SDS011;24083;55.670;37.568;2024-03-08T17:35:07;8.70;;;4.05;;
22094;SDS011;24083;55.670;37.568;2024-03-08T17:40:05;4.47;;;2.22;;
22094;SDS011;24083;55.670;37.568;2024-03-08T17:42:38;3.78;;;2.10;;
22094;SDS011;24083;55.670;37.568;2024-03-08T17:54:10;5.75;;;1.95;;
22094;SDS011;24083;55.670;37.568;2024-03-08T17:57:18;6.00;;;3.70;;
22094;SDS011;24083;55.670;37.568;2024-03-08T18:22:43;5.57;;;3.10;;
22094;SDS011;24083;55.670;37.568;2024-03-08T18:31:45;4.22;;;2.17;;
22094;SDS011;24083;55.670;37.568;2024-03-08T18:53:58;5.70;;;3.08;;
22094;SDS011;24083;55.670;37.568;2024-03-08T18:56:43;5.22;;;3.47;;
22094;SDS011;24083;55.670;37.568;2024-03-08T18:59:21;6.75;;;3.58;;
22094;SDS011;24083;55.670;37.568;2024-03-08T19:01:48;4.55;;;1.90;;
22094;SDS011;24083;55.670;37.568;2024-03-08T19:07:54;8.32;;;4.20;;
22094;SDS011;24083;55.670;37.568;2024-03-08T19:13:49;6.30;;;3.35;;
22094;SDS011;24083;55.670;37.568;2024-03-08T19:25:24;6.05;;;2.90;;
22094;SDS011;24083;55.670;37.568;2024-03-08T19:28:16;5.43;;;2.38;;
22094;SDS011;24083;55.670;37.568;2024-03-08T19:37:10;6.68;;;3.30;;
22094;SDS011;24083;55.670;37.568;2024-03-08T19:39:37;4.78;;;2.60;;
22094;SDS011;24083;55.670;37.568;2024-03-08T19:42:03;4.78;;;2.80;;
22094;SDS011;24083;55.670;37.568;2024-03-08T19:44:33;4.32;;;2.58;;
22094;SDS011;24083;55.670;37.568;2024-03-08T19:47:06;2.42;;;1.67;;
22094;SDS011;24083;55.670;37.568;2024-03-08T19:49:57;3.75;;;2.13;;
22094;SDS011;24083;55.670;37.568;2024-03-08T20:04:50;3.40;;;1.58;;
22094;SDS011;24083;55.670;37.568;2024-03-08T20:07:23;1.63;;;0.90;;
22094;SDS011;24083;55.670;37.568;2024-03-08T20:10:00;1.50;;;0.93;;
22094;SDS011;24083;55.670;37.568;2024-03-08T20:12:39;2.33;;;1.38;;
22094;SDS011;24083;55.670;37.568;2024-03-08T20:15:14;1.92;;;0.93;;
22094;SDS011;24083;55.670;37.568;2024-03-08T20:17:53;2.17;;;1.30;;
22094;SDS011;24083;55.670;37.568;2024-03-08T20:20:21;1.00;;;0.47;;
22094;SDS011;24083;55.670;37.568;2024-03-08T20:25:21;2.05;;;1.05;;
22094;SDS011;24083;55.670;37.568;2024-03-08T20:27:56;3.42;;;1.10;;
22094;SDS011;24083;55.670;37.568;2024-03-08T20:36:08;3.40;;;1.63;;
22094;SDS011;24083;55.670;37.568;2024-03-08T20:38:37;2.72;;;1.08;;
22094;SDS011;24083;55.670;37.568;2024-03-08T20:44:09;3.80;;;1.45;;
22094;SDS011;24083;55.670;37.568;2024-03-08T20:46:41;2.15;;;1.35;;
22094;SDS011;24083;55.670;37.568;2024-03-08T20:49:07;1.52;;;1.10;;
22094;SDS011;24083;55.670;37.568;2024-03-08T20:54:37;2.17;;;1.33;;
22094;SDS011;24083;55.670;37.568;2024-03-08T21:00:29;3.55;;;1.08;;
22094;SDS011;24083;55.670;37.568;2024-03-08T21:06:05;1.40;;;0.90;;
22094;SDS011;24083;55.670;37.568;2024-03-08T21:08:39;0.47;;;0.40;;
22094;SDS011;24083;55.670;37.568;2024-03-08T21:17:01;0.50;;;0.40;;
22094;SDS011;24083;55.670;37.568;2024-03-08T21:23:24;2.92;;;0.80;;
22094;SDS011;24083;55.670;37.568;2024-03-08T21:26:02;1.27;;;0.70;;
22094;SDS011;24083;55.670;37.568;2024-03-08T21:28:34;1.63;;;0.75;;
22094;SDS011;24083;55.670;37.568;2024-03-08T21:34:03;0.60;;;0.40;;
22094;SDS011;24083;55.670;37.568;2024-03-08T21:36:31;0.75;;;0.60;;
22094;SDS011;24083;55.670;37.568;2024-03-08T21:38:58;0.95;;;0.63;;
22094;SDS011;24083;55.670;37.568;2024-03-08T21:41:25;1.65;;;0.60;;
22094;SDS011;24083;55.670;37.568;2024-03-08T21:43:52;1.42;;;0.75;;
22094;SDS011;24083;55.670;37.568;2024-03-08T21:46:29;0.52;;;0.30;;
22094;SDS011;24083;55.670;37.568;2024-03-08T21:51:28;1.45;;;0.80;;
22094;SDS011;24083;55.670;37.568;2024-03-08T22:00:05;1.15;;;0.70;;
22094;SDS011;24083;55.670;37.568;2024-03-08T22:02:41;1.23;;;0.47;;
22094;SDS011;24083;55.670;37.568;2024-03-08T22:16:13;3.20;;;1.10;;
22094;SDS011;24083;55.670;37.568;2024-03-08T22:21:35;0.52;;;0.50;;
22094;SDS011;24083;55.670;37.568;2024-03-08T22:27:25;2.60;;;0.98;;
22094;SDS011;24083;55.670;37.568;2024-03-08T22:29:54;1.20;;;0.68;;
22094;SDS011;24083;55.670;37.568;2024-03-08T22:32:21;1.48;;;0.70;;
22094;SDS011;24083;55.670;37.568;2024-03-08T22:34:50;3.35;;;0.90;;
22094;SDS011;24083;55.670;37.568;2024-03-08T22:38:18;1.45;;;0.57;;
22094;SDS011;24083;55.670;37.568;2024-03-08T22:40:46;1.83;;;0.70;;
22094;SDS011;24083;55.670;37.568;2024-03-08T22:45:56;1.67;;;1.00;;
22094;SDS011;24083;55.670;37.568;2024-03-08T22:48:26;1.65;;;1.00;;
22094;SDS011;24083;55.670;37.568;2024-03-08T22:55:56;1.52;;;0.90;;
22094;SDS011;24083;55.670;37.568;2024-03-08T22:58:22;1.13;;;0.55;;
22094;SDS011;24083;55.670;37.568;2024-03-08T23:00:50;3.05;;;0.73;;
22094;SDS011;24083;55.670;37.568;2024-03-08T23:06:48;0.88;;;0.60;;
22094;SDS011;24083;55.670;37.568;2024-03-08T23:09:14;0.57;;;0.50;;
22094;SDS011;24083;55.670;37.568;2024-03-08T23:11:40;0.60;;;0.40;;
22094;SDS011;24083;55.670;37.568;2024-03-08T23:14:06;1.70;;;1.00;;
22094;SDS011;24083;55.670;37.568;2024-03-08T23:16:34;3.13;;;0.60;;
22094;SDS011;24083;55.670;37.568;2024-03-08T23:21:30;1.70;;;1.08;;
22094;SDS011;24083;55.670;37.568;2024-03-08T23:24:05;1.88;;;0.60;;
22094;SDS011;24083;55.670;37.568;2024-03-08T23:26:32;1.80;;;1.00;;
22094;SDS011;24083;55.670;37.568;2024-03-08T23:28:59;1.45;;;0.60;;
22094;SDS011;24083;55.670;37.568;2024-03-08T23:31:29;2.97;;;1.00;;
22094;SDS011;24083;55.670;37.568;2024-03-08T23:33:59;0.68;;;0.52;;
22094;SDS011;24083;55.670;37.568;2024-03-08T23:36:25;1.65;;;0.93;;
22094;SDS011;24083;55.670;37.568;2024-03-08T23:38:51;1.00;;;0.80;;
22094;SDS011;24083;55.670;37.568;2024-03-08T23:41:18;2.20;;;0.90;;
22094;SDS011;24083;55.670;37.568;2024-03-08T23:43:45;1.33;;;0.80;;
22094;SDS011;24083;55.670;37.568;2024-03-08T23:46:12;2.53;;;1.20;;
22094;SDS011;24083;55.670;37.568;2024-03-08T23:48:39;4.13;;;1.02;;
22094;SDS011;24083;55.670;37.568;2024-03-08T23:51:06;2.40;;;1.30;;
22094;SDS011;24083;55.670;37.568;2024-03-08T23:53:36;2.58;;;1.00;;
22094;SDS011;24083;55.670;37.568;2024-03-08T23:56:03;1.88;;;0.77;;
